Aviation Digital Data Service (ADDS)

Output produced by TAFs form (0635 UTC 24 September 2017)
found at http://aviationweather.gov/adds/tafs/
 
KMTJ 240524Z 2406/2506 15003KT P6SM SKC 
     FM241700 25012KT P6SM FEW080 SCT140 
     FM250000 27008KT P6SM FEW100 FEW250 
     FM250200 22004KT P6SM FEW090 FEW250